Austin (LCRA Redbud)'s Hourly Summary for Wednesday, July 11, 2018
Hour Temp
(f)
RH
(%)
Solar Rad.
(MJ/m2)
Rainfall
(in)
Wind
(mph)
7/11/2018 12:00 AM 81 72 0 0 0.92
7/11/2018 1:00 AM 80 76 0 0 1.02
7/11/2018 2:00 AM 79 79 0 0 1
7/11/2018 3:00 AM 78 83 0 0 0.12
7/11/2018 4:00 AM 76 83 0 0 0.02
7/11/2018 5:00 AM 75 87 0 0 0.31
7/11/2018 6:00 AM 75 89 0 0 0.09
7/11/2018 7:00 AM 73 90 0.01 0 0
7/11/2018 8:00 AM 79 90 0.24 0 0.13
7/11/2018 9:00 AM 82 72 0.89 0 0.91
7/11/2018 10:00 AM 86 66 1.6 0 2.13
7/11/2018 11:00 AM 88 57 2.24 0 1.62
7/11/2018 12:00 PM 90 49 2.78 0 1.6
7/11/2018 1:00 PM 91 46 3.15 0 1.86
7/11/2018 2:00 PM 92 41 3.31 0 2.23
7/11/2018 3:00 PM 93 42 3.2 0 2.22
7/11/2018 4:00 PM 93 42 2.95 0 2.02
7/11/2018 5:00 PM 93 39 2.52 0 2.18
7/11/2018 6:00 PM 93 39 1.8 0 2.08
7/11/2018 7:00 PM 93 41 1.11 0 2.46
7/11/2018 8:00 PM 91 44 0.15 0 2.14
7/11/2018 9:00 PM 88 60 0.03 0 0.71
7/11/2018 10:00 PM 82 69 0 0 0
7/11/2018 11:00 PM 79 71 0 0 0
Data Summary 84 63 25.98 0.00 1.16